createdAt,value
2019-01-22T00:00:32.593Z,19.75
2019-01-22T00:02:59.947Z,21.95
2019-01-22T00:05:27.310Z,22.98
2019-01-22T00:07:54.762Z,24.05
2019-01-22T00:10:21.974Z,23.80
2019-01-22T00:12:49.314Z,23.50
2019-01-22T00:15:16.850Z,22.32
2019-01-22T00:17:44.103Z,22.32
2019-01-22T00:20:11.835Z,22.75
2019-01-22T00:22:39.186Z,22.62
2019-01-22T00:25:08.098Z,22.70
2019-01-22T00:27:35.539Z,23.73
2019-01-22T00:30:04.457Z,23.47
2019-01-22T00:32:31.917Z,24.77
2019-01-22T00:34:59.269Z,26.00
2019-01-22T00:37:26.737Z,24.82
2019-01-22T00:39:54.070Z,22.58
2019-01-22T00:42:21.432Z,25.35
2019-01-22T00:44:48.789Z,23.05
2019-01-22T00:47:16.418Z,21.05
2019-01-22T00:49:43.643Z,21.85
2019-01-22T00:52:11.089Z,19.80
2019-01-22T00:54:38.310Z,20.57
2019-01-22T00:57:05.526Z,19.40
2019-01-22T00:59:32.773Z,20.62
2019-01-22T01:02:00.510Z,21.87
2019-01-22T01:04:27.922Z,20.92
2019-01-22T01:06:55.293Z,20.80
2019-01-22T01:09:22.625Z,22.73
2019-01-22T01:11:49.858Z,20.35
2019-01-22T01:14:17.194Z,19.23
2019-01-22T01:16:44.434Z,19.10
2019-01-22T01:19:12.094Z,20.25
2019-01-22T01:21:39.453Z,19.40
2019-01-22T01:24:06.674Z,19.27
2019-01-22T01:26:34.011Z,18.80
2019-01-22T01:29:01.249Z,19.70
2019-01-22T01:31:28.515Z,19.60
2019-01-22T01:33:56.262Z,20.97
2019-01-22T01:36:23.714Z,23.65
2019-01-22T01:38:51.030Z,23.35
2019-01-22T01:41:18.493Z,22.55
2019-01-22T01:43:45.950Z,20.37
2019-01-22T01:46:13.205Z,19.27
2019-01-22T01:48:40.453Z,20.92
2019-01-22T01:51:08.013Z,19.12
2019-01-22T01:53:35.246Z,18.27
2019-01-22T01:56:02.497Z,20.20
2019-01-22T01:58:29.850Z,20.68
2019-01-22T02:00:57.193Z,18.98
2019-01-22T02:03:24.542Z,20.72
2019-01-22T02:05:51.793Z,23.85
2019-01-22T02:08:19.241Z,22.17
2019-01-22T02:10:46.471Z,22.73
2019-01-22T02:13:21.505Z,21.45
2019-01-22T02:16:07.090Z,22.75
2019-01-22T02:18:50.513Z,20.45
2019-01-22T02:21:55.490Z,21.37
2019-01-22T02:24:52.058Z,20.92
2019-01-22T02:27:49.772Z,18.40
2019-01-22T02:30:37.697Z,18.73
2019-01-22T02:33:36.691Z,20.55
2019-01-22T02:36:38.865Z,20.12
2019-01-22T02:39:43.898Z,19.60
2019-01-22T02:42:37.271Z,19.62
2019-01-22T02:45:24.682Z,19.82
2019-01-22T02:48:14.370Z,18.50
2019-01-22T02:51:19.557Z,20.37
2019-01-22T02:54:17.919Z,22.25
2019-01-22T02:57:23.132Z,22.07
2019-01-22T03:00:39.886Z,21.40
2019-01-22T03:03:49.886Z,21.85
2019-01-22T03:07:05.153Z,20.90
2019-01-22T03:10:11.023Z,21.05
2019-01-22T03:12:57.650Z,22.70
2019-01-22T03:15:48.958Z,21.40
2019-01-22T03:18:54.212Z,21.70
2019-01-22T03:21:34.343Z,17.55
2019-01-22T03:24:40.750Z,17.80
2019-01-22T03:27:46.474Z,17.60
2019-01-22T03:30:49.826Z,17.17
2019-01-22T03:34:10.943Z,16.35
2019-01-22T03:37:20.731Z,19.17
2019-01-22T03:40:10.325Z,17.85
2019-01-22T03:43:01.825Z,19.05
2019-01-22T03:45:58.147Z,19.20
2019-01-22T03:49:10.105Z,20.05
2019-01-22T03:52:04.225Z,18.52
2019-01-22T03:54:54.237Z,19.92
2019-01-22T03:57:25.930Z,19.23
2019-01-22T03:59:53.311Z,19.92
2019-01-22T04:02:22.334Z,18.70
2019-01-22T04:04:49.581Z,20.95
2019-01-22T04:07:16.814Z,19.62
2019-01-22T04:10:03.351Z,21.62
2019-01-22T04:12:30.709Z,20.77
2019-01-22T04:14:59.864Z,18.17
2019-01-22T04:17:27.208Z,19.05
2019-01-22T04:19:54.974Z,19.35
2019-01-22T04:22:34.235Z,20.43
2019-01-22T04:25:17.464Z,20.40
2019-01-22T04:28:34.943Z,21.00
2019-01-22T04:31:17.200Z,22.50
2019-01-22T04:34:24.525Z,22.10
2019-01-22T04:37:20.918Z,21.95
2019-01-22T04:40:15.578Z,22.65
2019-01-22T04:43:04.369Z,22.22
2019-01-22T04:46:31.925Z,20.35
2019-01-22T04:49:43.663Z,24.75
2019-01-22T04:52:22.250Z,24.20
2019-01-22T04:55:31.553Z,20.65
2019-01-22T04:58:32.525Z,20.65
2019-01-22T05:01:33.874Z,20.52
2019-01-22T05:04:26.087Z,20.25
2019-01-22T05:07:33.926Z,20.35
2019-01-22T05:10:43.642Z,18.00
2019-01-22T05:13:54.539Z,19.15
2019-01-22T05:17:15.953Z,20.97
2019-01-22T05:20:18.334Z,21.52
2019-01-22T05:23:08.502Z,34.55
2019-01-22T05:26:12.237Z,22.45
2019-01-22T05:29:16.216Z,18.85
2019-01-22T05:32:08.782Z,19.55
2019-01-22T05:35:22.326Z,18.80
2019-01-22T05:38:55.613Z,18.55
2019-01-22T05:42:14.043Z,18.02
2019-01-22T05:44:49.918Z,19.82
2019-01-22T05:47:50.985Z,18.50
2019-01-22T05:50:39.217Z,20.00
2019-01-22T05:53:53.100Z,19.35
2019-01-22T05:56:29.222Z,18.57
2019-01-22T05:59:32.833Z,19.27
2019-01-22T06:02:09.911Z,20.02
2019-01-22T06:05:18.506Z,16.70
2019-01-22T06:08:03.233Z,19.10
2019-01-22T06:11:09.142Z,18.92
2019-01-22T06:14:27.663Z,23.77
2019-01-22T06:17:17.123Z,19.85
2019-01-22T06:20:06.138Z,21.15
2019-01-22T06:23:23.576Z,21.97
2019-01-22T06:26:42.858Z,20.23
2019-01-22T06:29:57.858Z,21.70
2019-01-22T06:32:47.284Z,18.55
2019-01-22T06:35:53.561Z,20.70
2019-01-22T06:38:58.574Z,19.48
2019-01-22T06:41:42.237Z,21.62
2019-01-22T06:44:51.869Z,21.73
2019-01-22T06:47:38.155Z,19.90
2019-01-22T06:50:35.477Z,20.08
2019-01-22T06:53:42.887Z,19.90
2019-01-22T06:56:22.245Z,21.75
2019-01-22T06:59:20.751Z,21.33
2019-01-22T07:02:01.622Z,21.30
2019-01-22T07:04:47.061Z,21.82
2019-01-22T07:07:55.266Z,19.73
2019-01-22T07:11:12.722Z,20.50
2019-01-22T07:14:03.290Z,21.50
2019-01-22T07:17:11.403Z,19.65
2019-01-22T07:20:26.510Z,22.73
2019-01-22T07:23:20.690Z,20.50
2019-01-22T07:26:41.962Z,21.85
2019-01-22T07:29:40.181Z,19.85
2019-01-22T07:32:35.640Z,22.67
2019-01-22T07:35:21.682Z,21.12
2019-01-22T07:38:20.595Z,33.88
2019-01-22T07:41:14.254Z,32.40
2019-01-22T07:44:18.178Z,27.45
2019-01-22T07:47:25.994Z,27.80
2019-01-22T07:50:47.520Z,23.27
2019-01-22T07:53:48.254Z,29.80
2019-01-22T07:57:01.862Z,25.85
2019-01-22T07:59:39.121Z,27.13
2019-01-22T08:02:54.142Z,28.20
2019-01-22T08:05:57.933Z,25.62
2019-01-22T08:08:50.636Z,28.40
2019-01-22T08:11:42.006Z,27.58
2019-01-22T08:14:42.895Z,27.20
2019-01-22T08:17:41.414Z,29.65
2019-01-22T08:20:44.418Z,25.60
2019-01-22T08:23:27.181Z,27.82
2019-01-22T08:26:16.483Z,29.27
2019-01-22T08:29:14.402Z,28.02
2019-01-22T08:32:26.607Z,32.03
2019-01-22T08:35:26.484Z,29.65
2019-01-22T08:38:33.633Z,30.32
2019-01-22T08:41:42.919Z,33.85
2019-01-22T08:44:27.987Z,29.92
2019-01-22T08:47:40.590Z,30.60
2019-01-22T08:50:45.010Z,37.45
2019-01-22T08:53:43.497Z,38.30
2019-01-22T08:56:49.055Z,37.48
2019-01-22T08:59:54.615Z,38.58
2019-01-22T09:03:06.742Z,35.90
2019-01-22T09:06:03.904Z,36.08
2019-01-22T09:08:57.482Z,29.82
2019-01-22T09:12:17.806Z,30.82
2019-01-22T09:15:09.252Z,31.37
2019-01-22T09:17:58.190Z,31.90
2019-01-22T09:21:13.841Z,31.15
2019-01-22T09:23:59.154Z,30.37
2019-01-22T09:26:58.354Z,28.85
2019-01-22T09:29:59.934Z,29.95
2019-01-22T09:32:55.422Z,30.68
2019-01-22T09:36:06.890Z,32.15
2019-01-22T09:38:34.364Z,32.83
2019-01-22T09:41:01.689Z,32.35
2019-01-22T09:43:28.926Z,29.72
2019-01-22T09:45:56.138Z,30.97
2019-01-22T09:48:23.372Z,28.07
2019-01-22T09:50:50.607Z,27.05
2019-01-22T09:53:17.956Z,27.37
2019-01-22T09:55:45.162Z,26.33
2019-01-22T09:58:12.533Z,26.07
2019-01-22T10:00:39.887Z,26.50
2019-01-22T10:03:07.406Z,24.23
2019-01-22T10:05:34.747Z,24.75
2019-01-22T10:08:01.958Z,24.12
2019-01-22T10:10:29.292Z,25.15
2019-01-22T10:12:57.841Z,26.35
2019-01-22T10:15:25.169Z,28.40
2019-01-22T10:17:52.413Z,30.15
2019-01-22T10:20:21.570Z,30.45
2019-01-22T10:22:49.525Z,29.23
2019-01-22T10:25:16.910Z,29.85
2019-01-22T10:27:44.274Z,34.45
2019-01-22T10:30:14.337Z,30.02
2019-01-22T10:32:41.589Z,32.15
2019-01-22T10:35:09.058Z,31.35
2019-01-22T10:37:36.321Z,34.00
2019-01-22T10:40:05.095Z,34.45
2019-01-22T10:42:32.340Z,31.07
2019-01-22T10:44:59.569Z,33.00
2019-01-22T10:47:26.920Z,34.83
2019-01-22T10:49:54.158Z,33.83
2019-01-22T10:52:21.391Z,35.25
2019-01-22T10:54:48.645Z,34.43
2019-01-22T10:57:15.882Z,34.20
2019-01-22T10:59:43.111Z,34.00
2019-01-22T11:02:10.350Z,36.40
2019-01-22T11:04:37.586Z,33.50
2019-01-22T11:07:04.810Z,34.98
2019-01-22T11:09:32.602Z,35.48
2019-01-22T11:11:59.950Z,36.53
2019-01-22T11:14:28.162Z,35.48
2019-01-22T11:16:55.418Z,36.38
2019-01-22T11:19:22.666Z,34.78
2019-01-22T11:21:49.874Z,39.58
2019-01-22T11:24:17.126Z,34.40
2019-01-22T11:26:44.354Z,33.33
2019-01-22T11:29:11.606Z,35.48
2019-01-22T11:31:38.969Z,34.50
2019-01-22T11:34:06.214Z,30.20
2019-01-22T11:36:33.545Z,28.12
2019-01-22T11:39:00.782Z,28.70
2019-01-22T11:41:28.019Z,30.45
2019-01-22T11:43:55.263Z,31.15
2019-01-22T11:46:22.511Z,31.73
2019-01-22T11:48:49.753Z,28.67
2019-01-22T11:51:17.141Z,32.23
2019-01-22T11:53:44.383Z,28.80
2019-01-22T11:56:11.621Z,33.48
2019-01-22T11:58:38.877Z,34.55
2019-01-22T12:01:06.418Z,33.75
2019-01-22T12:03:33.667Z,32.53
2019-01-22T12:06:01.126Z,33.88
2019-01-22T12:08:28.621Z,31.33
2019-01-22T12:10:55.865Z,30.60
2019-01-22T12:13:23.098Z,31.87
2019-01-22T12:15:51.289Z,31.42
2019-01-22T12:18:18.538Z,31.70
2019-01-22T12:20:47.129Z,28.23
2019-01-22T12:23:14.515Z,27.70
2019-01-22T12:25:41.774Z,26.55
2019-01-22T12:28:09.027Z,27.27
2019-01-22T12:30:36.439Z,25.60
2019-01-22T12:33:04.102Z,24.92
2019-01-22T12:35:31.318Z,26.12
2019-01-22T12:37:58.738Z,27.02
2019-01-22T12:40:26.014Z,29.20
2019-01-22T12:42:53.760Z,28.12
2019-01-22T12:45:23.453Z,29.63
2019-01-22T12:47:50.699Z,34.43
2019-01-22T12:50:25.346Z,35.63
2019-01-22T12:52:48.302Z,32.55
2019-01-22T12:55:15.747Z,32.25
2019-01-22T12:57:43.215Z,31.62
2019-01-22T13:00:19.532Z,29.57
2019-01-22T13:02:46.782Z,34.27
2019-01-22T13:05:22.198Z,33.50
2019-01-22T13:07:49.442Z,33.75
2019-01-22T13:10:16.732Z,34.88
2019-01-22T13:12:44.014Z,40.88
2019-01-22T13:15:11.308Z,41.13
2019-01-22T13:17:38.618Z,39.50
2019-01-22T13:20:10.760Z,35.80
2019-01-22T13:22:38.126Z,38.83
2019-01-22T13:25:07.254Z,34.03
2019-01-22T13:27:34.701Z,37.20
2019-01-22T13:30:02.498Z,39.20
2019-01-22T13:32:29.788Z,37.55
2019-01-22T13:34:57.044Z,39.67
2019-01-22T13:37:24.380Z,40.78
2019-01-22T13:39:51.640Z,43.00
2019-01-22T13:42:18.985Z,45.10
2019-01-22T13:44:46.249Z,49.63
2019-01-22T13:47:13.509Z,45.58
2019-01-22T13:49:40.759Z,55.95
2019-01-22T13:52:07.990Z,55.92
2019-01-22T13:54:35.238Z,57.53
2019-01-22T13:57:02.458Z,62.40
2019-01-22T13:59:29.717Z,64.35
2019-01-22T14:01:56.958Z,64.00
2019-01-22T14:04:24.217Z,65.08
2019-01-22T14:06:51.447Z,71.37
2019-01-22T14:09:18.706Z,77.42
2019-01-22T14:11:45.955Z,77.15
2019-01-22T14:14:13.185Z,67.70
2019-01-22T14:16:40.438Z,74.05
2019-01-22T14:19:08.589Z,71.53
2019-01-22T14:21:35.883Z,78.52
2019-01-22T14:24:03.231Z,82.80
2019-01-22T14:26:30.646Z,75.95
2019-01-22T14:28:57.878Z,71.28
2019-01-22T14:31:25.130Z,75.40
2019-01-22T14:33:52.357Z,62.33
2019-01-22T14:36:19.614Z,71.50
2019-01-22T14:38:46.878Z,68.72
2019-01-22T14:41:14.129Z,58.52
2019-01-22T14:43:41.362Z,76.57
2019-01-22T14:46:08.610Z,75.50
2019-01-22T14:48:35.854Z,62.60
2019-01-22T14:51:03.410Z,78.02
2019-01-22T14:53:30.754Z,66.90
2019-01-22T14:55:58.002Z,72.15
2019-01-22T14:58:25.230Z,106.50
2019-01-22T15:00:52.470Z,98.70
2019-01-22T15:03:19.707Z,82.40
2019-01-22T15:05:46.965Z,85.15
2019-01-22T15:08:14.226Z,86.20
2019-01-22T15:10:41.611Z,74.05
2019-01-22T15:13:08.936Z,69.75
2019-01-22T15:15:36.177Z,74.40
2019-01-22T15:18:03.823Z,72.25
2019-01-22T15:20:32.029Z,73.40
2019-01-22T15:22:59.296Z,71.62
2019-01-22T15:25:26.557Z,108.40
2019-01-22T15:27:54.013Z,75.03
2019-01-22T15:30:26.878Z,74.82
2019-01-22T15:32:54.110Z,71.85
2019-01-22T15:35:21.375Z,72.67
2019-01-22T15:37:48.633Z,70.30
2019-01-22T15:40:18.346Z,70.03
2019-01-22T15:42:45.580Z,64.72
2019-01-22T15:45:13.165Z,66.85
2019-01-22T15:47:40.506Z,76.05
2019-01-22T15:50:09.718Z,63.68
2019-01-22T15:52:36.969Z,67.95
2019-01-22T15:55:06.351Z,67.60
2019-01-22T15:57:33.577Z,66.33
2019-01-22T16:00:00.865Z,71.12
2019-01-22T16:02:28.561Z,79.15
2019-01-22T16:04:55.821Z,75.57
2019-01-22T16:07:23.070Z,70.50
2019-01-22T16:09:50.326Z,62.50
2019-01-22T16:12:17.558Z,64.67
2019-01-22T16:14:44.789Z,65.85
2019-01-22T16:17:31.544Z,63.13
2019-01-22T16:19:58.762Z,61.48
2019-01-22T16:22:26.924Z,72.08
2019-01-22T16:24:54.190Z,66.25
2019-01-22T16:27:21.427Z,68.00
2019-01-22T16:29:48.685Z,66.00
2019-01-22T16:32:15.974Z,68.22
2019-01-22T16:34:43.226Z,64.85
2019-01-22T16:37:10.483Z,64.70
2019-01-22T16:39:37.746Z,60.55
2019-01-22T16:42:05.191Z,61.18
2019-01-22T16:44:32.563Z,65.50
2019-01-22T16:46:59.910Z,69.10
2019-01-22T16:49:27.166Z,66.22
2019-01-22T16:51:54.414Z,64.55
2019-01-22T16:54:21.870Z,69.00
2019-01-22T16:56:49.197Z,77.70
2019-01-22T16:59:16.448Z,71.80
2019-01-22T17:01:43.674Z,62.98
2019-01-22T17:04:10.922Z,68.05
2019-01-22T17:06:38.279Z,59.53
2019-01-22T17:09:07.790Z,62.33
2019-01-22T17:11:35.019Z,75.25
2019-01-22T17:14:02.253Z,62.60
2019-01-22T17:16:29.491Z,63.30
2019-01-22T17:18:56.717Z,63.65
2019-01-22T17:21:24.084Z,68.52
2019-01-22T17:23:51.379Z,56.13
2019-01-22T17:26:18.717Z,60.98
2019-01-22T17:28:45.970Z,72.08
2019-01-22T17:31:38.407Z,71.95
2019-01-22T17:34:05.737Z,62.90
2019-01-22T17:36:32.971Z,61.30
2019-01-22T17:39:00.324Z,67.40
2019-01-22T17:41:27.577Z,71.97
2019-01-22T17:43:54.979Z,77.15
2019-01-22T17:46:22.230Z,67.80
2019-01-22T17:48:49.451Z,71.20
2019-01-22T17:51:16.692Z,84.03
2019-01-22T17:53:43.943Z,65.40
2019-01-22T17:56:11.354Z,60.17
2019-01-22T17:58:38.609Z,61.25
2019-01-22T18:01:05.971Z,80.70
2019-01-22T18:03:33.459Z,73.10
2019-01-22T18:06:00.714Z,67.70
2019-01-22T18:08:28.155Z,65.40
2019-01-22T18:10:55.518Z,64.32
2019-01-22T18:13:22.770Z,64.40
2019-01-22T18:15:50.014Z,62.98
2019-01-22T18:18:17.242Z,66.22
2019-01-22T18:20:44.486Z,67.72
2019-01-22T18:23:11.818Z,62.00
2019-01-22T18:25:39.153Z,59.67
2019-01-22T18:28:06.406Z,61.92
2019-01-22T18:30:33.880Z,61.15
2019-01-22T18:33:01.234Z,58.33
2019-01-22T18:35:37.845Z,60.98
2019-01-22T18:38:00.814Z,65.97
2019-01-22T18:40:28.071Z,73.47
2019-01-22T18:42:55.457Z,61.15
2019-01-22T18:45:22.881Z,58.13
2019-01-22T18:47:50.121Z,66.62
2019-01-22T18:50:19.394Z,64.67
2019-01-22T18:52:46.821Z,60.03
2019-01-22T18:55:14.068Z,57.80
2019-01-22T18:57:41.430Z,53.80
2019-01-22T19:00:11.254Z,57.33
2019-01-22T19:02:38.486Z,61.90
2019-01-22T19:05:06.586Z,58.60
2019-01-22T19:07:33.826Z,59.25
2019-01-22T19:10:03.929Z,68.20
2019-01-22T19:12:30.251Z,85.45
2019-01-22T19:14:57.490Z,81.65
2019-01-22T19:17:24.702Z,59.00
2019-01-22T19:19:52.091Z,65.25
2019-01-22T19:22:19.350Z,63.73
2019-01-22T19:24:46.573Z,79.80
2019-01-22T19:27:13.839Z,69.53
2019-01-22T19:29:41.087Z,78.50
2019-01-22T19:32:08.315Z,75.67
2019-01-22T19:34:35.558Z,71.70
2019-01-22T19:37:02.778Z,124.12
2019-01-22T19:39:30.051Z,83.35
2019-01-22T19:41:57.307Z,74.37
2019-01-22T19:44:24.562Z,71.72
2019-01-22T19:46:51.886Z,68.20
2019-01-22T19:49:19.127Z,68.33
2019-01-22T19:51:46.373Z,66.92
2019-01-22T19:54:13.741Z,64.97
2019-01-22T19:56:40.992Z,61.10
2019-01-22T19:59:08.230Z,57.65
2019-01-22T20:01:35.454Z,62.40
2019-01-22T20:04:04.605Z,53.55
2019-01-22T20:06:33.249Z,59.53
2019-01-22T20:09:00.528Z,53.52
2019-01-22T20:11:27.975Z,59.90
2019-01-22T20:13:55.257Z,65.20
2019-01-22T20:16:22.478Z,63.40
2019-01-22T20:18:49.817Z,66.35
2019-01-22T20:21:17.066Z,54.30
2019-01-22T20:23:58.272Z,57.50
2019-01-22T20:26:25.523Z,58.95
2019-01-22T20:28:52.960Z,57.55
2019-01-22T20:31:20.293Z,59.85
2019-01-22T20:33:47.531Z,59.30
2019-01-22T20:36:14.763Z,58.98
2019-01-22T20:38:42.098Z,63.15
2019-01-22T20:41:09.616Z,65.00
2019-01-22T20:43:36.866Z,63.55
2019-01-22T20:46:04.131Z,70.87
2019-01-22T20:48:31.379Z,59.75
2019-01-22T20:50:58.709Z,50.63
2019-01-22T20:53:25.946Z,53.65
2019-01-22T20:55:53.274Z,57.62
2019-01-22T20:58:20.550Z,54.65
2019-01-22T21:00:47.797Z,56.00
2019-01-22T21:03:16.009Z,59.25
2019-01-22T21:05:43.353Z,60.83
2019-01-22T21:08:10.598Z,61.20
2019-01-22T21:10:37.839Z,63.17
2019-01-22T21:13:05.082Z,57.40
2019-01-22T21:15:32.322Z,59.40
2019-01-22T21:17:59.577Z,64.77
2019-01-22T21:20:26.813Z,62.53
2019-01-22T21:22:54.142Z,63.90
2019-01-22T21:25:21.414Z,52.65
2019-01-22T21:27:48.779Z,53.83
2019-01-22T21:30:27.729Z,59.90
2019-01-22T21:32:55.250Z,57.70
2019-01-22T21:35:23.322Z,58.95
2019-01-22T21:37:50.761Z,55.88
2019-01-22T21:40:17.994Z,59.60
2019-01-22T21:42:45.326Z,63.45
2019-01-22T21:45:13.196Z,59.90
2019-01-22T21:47:40.542Z,54.80
2019-01-22T21:50:09.527Z,60.65
2019-01-22T21:52:36.771Z,62.27
2019-01-22T21:55:05.861Z,55.20
2019-01-22T21:57:33.094Z,56.45
2019-01-22T22:00:00.189Z,54.55
2019-01-22T22:02:27.478Z,51.00
2019-01-22T22:04:54.803Z,56.45
2019-01-22T22:07:22.158Z,59.55
2019-01-22T22:09:49.378Z,53.10
2019-01-22T22:12:16.727Z,55.48
2019-01-22T22:14:43.954Z,52.10
2019-01-22T22:17:11.218Z,52.27
2019-01-22T22:19:38.462Z,54.83
2019-01-22T22:22:05.553Z,56.35
2019-01-22T22:24:32.814Z,53.80
2019-01-22T22:27:00.050Z,57.08
2019-01-22T22:29:27.298Z,60.88
2019-01-22T22:31:54.666Z,51.48
2019-01-22T22:34:22.021Z,57.48
2019-01-22T22:36:49.427Z,58.58
2019-01-22T22:39:16.916Z,61.15
2019-01-22T22:41:44.212Z,52.17
2019-01-22T22:44:12.016Z,60.05
2019-01-22T22:46:39.514Z,61.25
2019-01-22T22:49:06.757Z,54.80
2019-01-22T22:51:33.993Z,54.42
2019-01-22T22:54:01.223Z,53.00
2019-01-22T22:56:28.446Z,54.35
2019-01-22T22:58:55.686Z,53.87
2019-01-22T23:01:37.258Z,55.23
2019-01-22T23:04:05.618Z,54.88
2019-01-22T23:06:34.738Z,51.58
2019-01-22T23:09:05.690Z,52.53
2019-01-22T23:11:33.033Z,53.90
2019-01-22T23:14:00.288Z,49.00
2019-01-22T23:16:27.525Z,55.12
2019-01-22T23:18:54.889Z,49.65
2019-01-22T23:21:22.106Z,52.98
2019-01-22T23:23:49.486Z,52.23
2019-01-22T23:26:16.726Z,56.23
2019-01-22T23:28:43.966Z,52.70
2019-01-22T23:31:11.222Z,54.48
2019-01-22T23:33:39.405Z,52.93
2019-01-22T23:36:06.646Z,113.08
2019-01-22T23:38:33.902Z,51.68
2019-01-22T23:41:01.150Z,50.65
2019-01-22T23:43:28.368Z,53.28
2019-01-22T23:45:55.613Z,50.12
2019-01-22T23:48:22.866Z,49.95
2019-01-22T23:50:50.127Z,50.25
2019-01-22T23:53:17.372Z,51.05
2019-01-22T23:55:44.621Z,53.48
2019-01-22T23:58:11.890Z,51.98
